Time;durP1;ratioP1;P1;durP2;ratioP2;P2;SDS_P1;SDS_P2;PMS_P1;PMS_P2;Temp;Humidity;BMP_temperature;BMP_pressure;BME280_temperature;BME280_humidity;BME280_pressure;Samples;Min_cycle;Max_cycle;Signal;HPM_P1;HPM_P2
2022/08/04 00:00:17;;;;;;;3.00;2.70;;;24.90;95.50;;;;;;6159726;28;89035;-67
2022/08/04 00:03:24;;;;;;;3.20;2.90;;;24.90;95.40;;;;;;6136415;28;90192;-67
2022/08/04 00:06:37;;;;;;;3.10;2.80;;;24.80;95.40;;;;;;6141274;28;88961;-67
2022/08/04 00:09:43;;;;;;;2.95;2.75;;;24.80;95.50;;;;;;6156891;28;89093;-67
2022/08/04 00:12:50;;;;;;;3.30;2.70;;;24.80;95.40;;;;;;6159051;28;89108;-67
2022/08/04 00:15:53;;;;;;;4.20;3.30;;;24.80;95.40;;;;;;6151110;28;90377;-67
2022/08/04 00:19:03;;;;;;;3.28;2.97;;;24.90;95.40;;;;;;6155359;28;89172;-67
2022/08/04 00:22:09;;;;;;;2.90;2.60;;;24.80;95.60;;;;;;6153773;28;89181;-67
2022/08/04 00:25:11;;;;;;;3.17;2.90;;;24.80;95.70;;;;;;6146138;28;88303;-67
2022/08/04 00:28:13;;;;;;;3.20;2.90;;;24.80;95.80;;;;;;6135105;28;89063;-67
2022/08/04 00:31:16;;;;;;;2.78;2.58;;;24.80;95.90;;;;;;6135239;28;89142;-67
2022/08/04 00:34:19;;;;;;;3.30;2.88;;;24.90;95.80;;;;;;6135804;28;90012;-67
2022/08/04 00:37:22;;;;;;;3.50;2.70;;;24.90;95.80;;;;;;6147192;28;89508;-67
2022/08/04 00:40:32;;;;;;;3.17;2.90;;;24.80;95.70;;;;;;6141392;28;89070;-67
2022/08/04 00:43:38;;;;;;;3.65;2.83;;;24.80;95.60;;;;;;6136961;28;89152;-67
2022/08/04 00:46:58;;;;;;;2.80;2.60;;;24.90;95.70;;;;;;6149322;28;88775;-67
2022/08/04 00:50:12;;;;;;;3.20;2.90;;;24.80;95.70;;;;;;6135039;28;89082;-67
2022/08/04 00:53:26;;;;;;;2.97;2.78;;;24.80;95.80;;;;;;6157174;28;89022;-67
2022/08/04 00:56:52;;;;;;;2.80;2.60;;;24.80;95.60;;;;;;6147448;28;88349;-67
2022/08/04 01:00:06;;;;;;;3.08;2.88;;;24.80;95.50;;;;;;6141380;28;89086;-67
2022/08/04 01:03:14;;;;;;;2.83;2.63;;;24.70;95.40;;;;;;6146191;28;89001;-67
2022/08/04 01:06:31;;;;;;;4.55;3.15;;;24.80;95.50;;;;;;6156073;28;90452;-67
2022/08/04 01:09:44;;;;;;;3.55;2.90;;;24.80;95.80;;;;;;6150849;28;89026;-67
2022/08/04 01:13:12;;;;;;;3.17;2.72;;;24.80;96.10;;;;;;6134375;28;89152;-67
2022/08/04 01:16:17;;;;;;;2.88;2.67;;;24.80;96.10;;;;;;6148791;28;88719;-67
2022/08/04 01:19:42;;;;;;;3.22;2.92;;;24.80;96.20;;;;;;6155324;28;89211;-67
2022/08/04 01:23:25;;;;;;;3.65;3.17;;;24.80;96.20;;;;;;6132565;28;89133;-66
2022/08/04 01:26:46;;;;;;;2.83;2.63;;;24.70;96.00;;;;;;6146344;28;89322;-67
2022/08/04 01:29:51;;;;;;;3.08;2.88;;;24.80;95.80;;;;;;6144891;28;88391;-67
2022/08/04 01:32:59;;;;;;;2.88;2.67;;;24.80;95.40;;;;;;6133390;28;89178;-67
2022/08/04 01:36:04;;;;;;;3.05;2.85;;;24.80;95.30;;;;;;6136152;28;89304;-67
2022/08/04 01:39:39;;;;;;;3.00;2.72;;;24.70;95.10;;;;;;6146709;28;90085;-67
2022/08/04 01:42:32;;;;;;;3.35;3.10;;;24.70;95.40;;;;;;6132647;28;87971;-67
2022/08/04 01:45:37;;;;;;;3.20;2.90;;;24.70;95.40;;;;;;6142524;28;89115;-67
2022/08/04 01:48:40;;;;;;;3.38;3.08;;;24.70;95.00;;;;;;6144112;28;89406;-67
2022/08/04 01:51:44;;;;;;;3.08;2.78;;;24.70;94.90;;;;;;6142314;28;88950;-67
2022/08/04 01:54:47;;;;;;;2.90;2.70;;;24.70;95.00;;;;;;6148107;28;88994;-67
2022/08/04 01:57:51;;;;;;;3.58;3.28;;;24.70;95.00;;;;;;6156492;28;89388;-67
2022/08/04 02:01:01;;;;;;;4.45;2.90;;;24.70;95.10;;;;;;6153104;28;87206;-67
2022/08/04 02:04:03;;;;;;;3.90;3.00;;;24.70;95.30;;;;;;6155362;28;89125;-67
2022/08/04 02:07:27;;;;;;;2.92;2.72;;;24.60;95.40;;;;;;6143350;28;91528;-67
2022/08/04 02:10:35;;;;;;;3.38;2.78;;;24.60;95.30;;;;;;6143703;28;90117;-67
2022/08/04 02:13:42;;;;;;;3.53;2.80;;;24.60;95.30;;;;;;6140709;28;89204;-67
2022/08/04 02:16:48;;;;;;;3.00;2.70;;;24.60;95.20;;;;;;6146200;28;89260;-67
2022/08/04 02:20:04;;;;;;;3.20;2.90;;;24.70;94.90;;;;;;6134296;28;89103;-67
2022/08/04 02:23:08;;;;;;;3.55;3.25;;;24.60;94.70;;;;;;6146792;28;89931;-67
2022/08/04 02:26:14;;;;;;;3.08;2.80;;;24.60;94.50;;;;;;6138207;28;89022;-67
2022/08/04 02:29:20;;;;;;;3.40;3.20;;;24.60;94.40;;;;;;6132634;28;89102;-67
2022/08/04 02:32:31;;;;;;;3.53;3.17;;;24.60;94.40;;;;;;6143293;28;89367;-67
2022/08/04 02:35:38;;;;;;;3.00;2.80;;;24.60;94.40;;;;;;6150879;28;89104;-67
2022/08/04 02:38:55;;;;;;;3.40;3.10;;;24.60;94.60;;;;;;6149769;28;89485;-67
2022/08/04 02:41:59;;;;;;;3.42;3.13;;;24.60;94.50;;;;;;6146369;28;88970;-67
2022/08/04 02:45:02;;;;;;;3.38;3.08;;;24.60;94.50;;;;;;6144713;28;89124;-67
2022/08/04 02:48:10;;;;;;;3.22;2.92;;;24.50;94.40;;;;;;6152931;28;89675;-67
2022/08/04 02:51:14;;;;;;;3.33;3.05;;;24.50;94.60;;;;;;6147893;28;88640;-68
2022/08/04 02:54:19;;;;;;;3.03;2.72;;;24.50;94.90;;;;;;6146927;28;89061;-67
2022/08/04 02:57:26;;;;;;;3.40;3.10;;;24.50;95.10;;;;;;6147113;28;89014;-67
2022/08/04 03:00:29;;;;;;;3.75;3.45;;;24.50;95.20;;;;;;6145224;28;89174;-67
2022/08/04 03:03:38;;;;;;;3.63;3.10;;;24.50;95.20;;;;;;6149226;28;88699;-66
2022/08/04 03:06:58;;;;;;;3.47;3.08;;;24.50;95.20;;;;;;6135682;28;89574;-67
2022/08/04 03:10:34;;;;;;;3.85;3.00;;;24.50;95.00;;;;;;6136086;28;89112;-67
2022/08/04 03:14:05;;;;;;;3.30;3.00;;;24.50;94.90;;;;;;6144525;28;91617;-67
2022/08/04 03:17:55;;;;;;;3.80;3.50;;;24.50;94.70;;;;;;6149004;28;89094;-66
2022/08/04 03:21:22;;;;;;;3.40;3.10;;;24.50;94.60;;;;;;6069145;28;89088;-67
2022/08/04 03:25:02;;;;;;;3.40;3.10;;;24.50;94.70;;;;;;6143113;28;88988;-67
2022/08/04 03:28:38;;;;;;;3.40;2.92;;;24.40;94.60;;;;;;6148126;28;88983;-66
2022/08/04 03:32:16;;;;;;;3.90;3.22;;;24.50;94.60;;;;;;6135014;28;89178;-67
2022/08/04 03:36:03;;;;;;;3.33;3.05;;;24.40;94.70;;;;;;6135284;28;88993;-67
2022/08/04 03:39:39;;;;;;;3.78;3.03;;;24.40;94.70;;;;;;6144940;28;88459;-67
2022/08/04 03:43:38;;;;;;;3.45;2.92;;;24.40;94.60;;;;;;6135684;28;89365;-66
2022/08/04 03:47:10;;;;;;;5.15;3.10;;;24.40;94.90;;;;;;6151415;28;87602;-67
2022/08/04 03:50:35;;;;;;;3.17;2.97;;;24.50;95.10;;;;;;6139598;28;90003;-67
2022/08/04 03:53:48;;;;;;;3.78;3.00;;;24.40;95.10;;;;;;6133729;28;89232;-67
2022/08/04 03:57:24;;;;;;;3.13;2.92;;;24.40;95.20;;;;;;6159710;28;89315;-67
2022/08/04 04:00:31;;;;;;;3.63;3.33;;;24.40;95.10;;;;;;6143610;28;87979;-67
2022/08/04 04:03:59;;;;;;;3.70;3.38;;;24.40;95.00;;;;;;6145342;28;89122;-67
2022/08/04 04:07:47;;;;;;;5.32;3.10;;;24.40;95.00;;;;;;6134694;28;88909;-67
2022/08/04 04:11:25;;;;;;;4.70;3.20;;;24.40;94.80;;;;;;6148802;28;89392;-67
2022/08/04 04:14:43;;;;;;;3.85;3.50;;;24.40;94.80;;;;;;6144978;28;88230;-67
2022/08/04 04:18:16;;;;;;;3.22;3.00;;;24.40;94.70;;;;;;6159421;28;89081;-67
2022/08/04 04:21:30;;;;;;;3.90;3.60;;;24.30;94.60;;;;;;6124773;28;89396;-67
2022/08/04 04:25:03;;;;;;;4.72;3.50;;;24.30;94.60;;;;;;6146462;28;88916;-67
2022/08/04 04:28:28;;;;;;;3.63;3.33;;;24.30;94.60;;;;;;6134023;28;89355;-67
2022/08/04 04:31:59;;;;;;;3.60;3.30;;;24.30;94.70;;;;;;6136958;28;89018;-67
2022/08/04 04:35:17;;;;;;;3.78;3.42;;;24.30;94.70;;;;;;6154188;28;89286;-67
2022/08/04 04:38:45;;;;;;;3.28;3.00;;;24.30;94.90;;;;;;6136325;28;89110;-67
2022/08/04 04:42:07;;;;;;;3.60;3.30;;;24.30;95.50;;;;;;6153570;28;89192;-67
2022/08/04 04:45:24;;;;;;;3.88;3.58;;;24.40;95.10;;;;;;6147670;28;88246;-67
2022/08/04 04:48:42;;;;;;;3.92;3.33;;;24.40;95.20;;;;;;6141681;28;88324;-67
2022/08/04 04:51:49;;;;;;;3.97;3.47;;;24.40;95.30;;;;;;6144516;28;87944;-69
2022/08/04 04:54:58;;;;;;;4.30;3.95;;;24.40;95.40;;;;;;6146962;28;89031;-68
2022/08/04 04:58:02;;;;;;;3.78;3.40;;;24.40;96.00;;;;;;6153915;28;90139;-67
2022/08/04 05:01:34;;;;;;;3.90;3.50;;;24.40;96.00;;;;;;6145893;28;89447;-67
2022/08/04 05:05:02;;;;;;;4.70;4.03;;;24.40;96.00;;;;;;6128612;28;89058;-67
2022/08/04 05:08:39;;;;;;;5.03;4.22;;;24.40;96.20;;;;;;6132510;28;89076;-68
2022/08/04 05:12:20;;;;;;;5.30;4.07;;;24.40;96.10;;;;;;6131908;28;89179;-67
2022/08/04 05:15:34;;;;;;;4.38;3.88;;;24.50;96.00;;;;;;6145603;28;89078;-68
2022/08/04 05:18:41;;;;;;;4.28;3.80;;;24.50;95.90;;;;;;6134694;28;89085;-68
2022/08/04 05:21:48;;;;;;;3.95;3.65;;;24.50;95.80;;;;;;6133678;28;88430;-67
2022/08/04 05:25:00;;;;;;;6.25;3.70;;;24.50;95.70;;;;;;6146725;28;89575;-67
2022/08/04 05:28:07;;;;;;;6.75;3.97;;;24.50;95.80;;;;;;6155107;28;89112;-68
2022/08/04 05:31:13;;;;;;;4.13;3.80;;;24.50;95.80;;;;;;6146140;28;88816;-68
2022/08/04 05:34:20;;;;;;;3.83;3.22;;;24.50;95.80;;;;;;6135062;28;89168;-68
2022/08/04 05:37:25;;;;;;;3.95;3.65;;;24.50;95.90;;;;;;6144754;28;87981;-67
2022/08/04 05:40:27;;;;;;;4.25;3.70;;;24.50;95.90;;;;;;6144548;28;89068;-67
2022/08/04 05:43:30;;;;;;;3.97;3.58;;;24.60;96.00;;;;;;6144459;28;89113;-68
2022/08/04 05:46:33;;;;;;;4.20;3.80;;;24.60;96.00;;;;;;6149342;28;89062;-67
2022/08/04 05:49:36;;;;;;;4.53;3.72;;;24.60;96.00;;;;;;6132184;28;88041;-68
2022/08/04 05:52:42;;;;;;;4.00;3.70;;;24.60;96.00;;;;;;6133318;28;88623;-68
2022/08/04 05:55:45;;;;;;;4.20;3.80;;;24.60;96.00;;;;;;6145454;28;89292;-68
2022/08/04 05:58:47;;;;;;;3.80;3.50;;;24.60;96.10;;;;;;6149738;28;87956;-68
2022/08/04 06:01:50;;;;;;;3.70;3.40;;;24.60;96.20;;;;;;6153125;28;90034;-68
2022/08/04 06:04:53;;;;;;;3.97;3.50;;;24.60;96.30;;;;;;6152185;28;89197;-68
2022/08/04 06:07:56;;;;;;;4.03;3.67;;;24.60;96.30;;;;;;6150857;28;88976;-68
2022/08/04 06:11:03;;;;;;;4.00;3.60;;;24.60;96.40;;;;;;6138251;28;89070;-68
2022/08/04 06:14:09;;;;;;;3.88;3.50;;;24.60;96.50;;;;;;6141109;28;89043;-68
2022/08/04 06:17:15;;;;;;;3.38;3.08;;;24.60;96.50;;;;;;6137227;28;89220;-67
2022/08/04 06:20:19;;;;;;;4.45;3.78;;;24.60;96.60;;;;;;6146474;28;89134;-68
2022/08/04 06:23:27;;;;;;;3.72;3.42;;;24.60;96.60;;;;;;6146850;28;88329;-68
2022/08/04 06:26:32;;;;;;;3.80;3.50;;;24.60;96.70;;;;;;6142271;28;89083;-67
2022/08/04 06:29:39;;;;;;;3.80;3.47;;;24.70;96.80;;;;;;6142205;28;88974;-67
2022/08/04 06:32:54;;;;;;;3.53;3.28;;;24.70;96.80;;;;;;6140637;28;89898;-68
2022/08/04 06:35:58;;;;;;;3.75;3.45;;;24.60;96.90;;;;;;6141751;28;89000;-67
2022/08/04 06:39:02;;;;;;;4.00;3.70;;;24.70;97.00;;;;;;6153536;28;89190;-67
2022/08/04 06:42:05;;;;;;;4.25;3.47;;;24.70;97.00;;;;;;6137255;28;89063;-67
2022/08/04 06:45:09;;;;;;;3.80;3.50;;;24.70;97.10;;;;;;6143778;28;89478;-68
2022/08/04 06:48:14;;;;;;;3.70;3.40;;;24.70;97.20;;;;;;6133720;28;89074;-68
2022/08/04 06:51:17;;;;;;;4.05;3.70;;;24.70;97.30;;;;;;6148062;28;87712;-68
2022/08/04 06:54:21;;;;;;;3.95;3.65;;;24.70;97.40;;;;;;6152792;28;87280;-67
2022/08/04 06:57:27;;;;;;;3.70;3.40;;;24.70;97.50;;;;;;6150777;28;87908;-68
2022/08/04 07:00:31;;;;;;;3.95;3.55;;;24.70;97.60;;;;;;6149944;28;89458;-68
2022/08/04 07:03:33;;;;;;;3.63;3.33;;;24.70;97.70;;;;;;6139383;28;88961;-67
2022/08/04 07:06:36;;;;;;;3.50;3.20;;;24.70;98.10;;;;;;6134153;28;87990;-68
2022/08/04 07:09:40;;;;;;;3.63;3.33;;;24.70;97.70;;;;;;6137834;28;89094;-68
2022/08/04 07:12:43;;;;;;;3.53;3.22;;;24.70;97.70;;;;;;6140454;28;89329;-68
2022/08/04 07:15:46;;;;;;;3.50;3.20;;;24.70;97.70;;;;;;6131446;28;88107;-68
2022/08/04 07:18:48;;;;;;;3.42;3.20;;;24.70;97.80;;;;;;6149652;28;88959;-69
2022/08/04 07:21:50;;;;;;;3.50;3.20;;;24.80;97.80;;;;;;6155028;28;88378;-68
2022/08/04 07:24:57;;;;;;;3.67;3.38;;;24.70;97.80;;;;;;6146040;28;88433;-68
2022/08/04 07:27:59;;;;;;;3.58;3.28;;;24.70;97.80;;;;;;6145171;28;89085;-68
2022/08/04 07:31:03;;;;;;;3.60;3.30;;;24.80;98.00;;;;;;6138451;28;89057;-68
2022/08/04 07:34:05;;;;;;;3.88;3.42;;;24.80;98.10;;;;;;6143940;28;90572;-69
2022/08/04 07:37:07;;;;;;;3.60;3.30;;;24.80;98.30;;;;;;6150307;28;89042;-68
2022/08/04 07:40:11;;;;;;;3.70;3.00;;;24.70;98.30;;;;;;6146502;28;89061;-69
2022/08/04 07:43:16;;;;;;;3.80;3.50;;;24.80;98.40;;;;;;6136183;28;89347;-68
2022/08/04 07:46:18;;;;;;;3.80;3.50;;;24.70;98.50;;;;;;6146709;28;89260;-69
2022/08/04 07:49:21;;;;;;;3.63;3.33;;;24.70;98.50;;;;;;6145164;28;90121;-68
2022/08/04 07:52:24;;;;;;;3.53;3.22;;;24.70;98.60;;;;;;6147328;28;89063;-68
2022/08/04 07:55:29;;;;;;;3.50;3.20;;;24.80;98.70;;;;;;6157308;28;88355;-68
2022/08/04 07:58:31;;;;;;;3.47;3.17;;;24.80;98.70;;;;;;6152809;28;89196;-69
2022/08/04 08:01:34;;;;;;;3.50;3.20;;;24.80;98.70;;;;;;6149060;28;89076;-69
2022/08/04 08:04:36;;;;;;;3.35;3.10;;;24.80;98.70;;;;;;6154033;28;89996;-69
2022/08/04 08:07:39;;;;;;;3.80;3.50;;;24.80;98.70;;;;;;6145082;28;89077;-69
2022/08/04 08:10:47;;;;;;;3.22;3.03;;;24.80;99.10;;;;;;6143014;28;87895;-68
2022/08/04 08:13:50;;;;;;;3.70;3.40;;;24.80;98.80;;;;;;6144974;28;89453;-67
2022/08/04 08:16:52;;;;;;;3.20;3.00;;;24.80;98.80;;;;;;6146047;28;87969;-68
2022/08/04 08:19:54;;;;;;;3.30;3.10;;;24.80;98.90;;;;;;6157809;28;90192;-69
2022/08/04 08:22:56;;;;;;;3.17;2.95;;;24.80;99.00;;;;;;6156593;28;89332;-69
2022/08/04 08:26:00;;;;;;;3.17;2.97;;;24.80;99.10;;;;;;6138154;28;88365;-69
2022/08/04 08:29:03;;;;;;;3.22;2.92;;;24.80;99.20;;;;;;6153855;28;89203;-68
2022/08/04 08:32:11;;;;;;;3.63;3.33;;;24.80;99.20;;;;;;6151763;28;89376;-69
2022/08/04 08:35:14;;;;;;;3.42;3.15;;;24.80;99.20;;;;;;6138075;28;90425;-68
2022/08/04 08:38:19;;;;;;;3.58;3.28;;;24.80;99.30;;;;;;6156504;28;87983;-69
2022/08/04 08:41:46;;;;;;;3.47;3.17;;;24.80;99.30;;;;;;6155622;28;88073;-69
2022/08/04 08:45:38;;;;;;;3.45;3.15;;;24.80;99.40;;;;;;6133288;28;89368;-68
2022/08/04 08:49:07;;;;;;;3.33;3.03;;;24.90;99.50;;;;;;6141627;28;89088;-69
2022/08/04 08:52:25;;;;;;;3.55;3.30;;;24.80;99.50;;;;;;6158292;28;89065;-69
2022/08/04 08:55:40;;;;;;;3.53;3.13;;;24.80;99.60;;;;;;6147337;28;90728;-68
2022/08/04 08:58:57;;;;;;;3.50;3.20;;;24.90;99.60;;;;;;6144555;28;88343;-69
2022/08/04 09:02:21;;;;;;;3.35;3.10;;;24.80;99.60;;;;;;6157531;28;89046;-68
2022/08/04 09:05:43;;;;;;;3.42;3.13;;;24.90;99.70;;;;;;6146604;28;89086;-68
2022/08/04 09:09:02;;;;;;;3.90;3.60;;;24.90;99.70;;;;;;6143716;28;90164;-69
2022/08/04 09:12:12;;;;;;;3.60;3.30;;;24.80;99.80;;;;;;6144484;28;89198;-69
2022/08/04 09:15:22;;;;;;;3.72;3.42;;;24.90;99.90;;;;;;6133083;28;89475;-69
2022/08/04 09:18:27;;;;;;;3.60;3.30;;;24.90;99.90;;;;;;6156926;28;87968;-68
2022/08/04 09:21:35;;;;;;;3.58;3.28;;;24.90;99.90;;;;;;6142672;28;89128;-69
2022/08/04 09:24:48;;;;;;;3.22;3.03;;;24.80;99.90;;;;;;6155090;28;89355;-69
2022/08/04 09:27:53;;;;;;;3.25;3.03;;;24.90;99.90;;;;;;6156000;28;87993;-69
2022/08/04 09:31:03;;;;;;;3.40;3.20;;;24.80;99.90;;;;;;6144261;28;88579;-68
2022/08/04 09:34:11;;;;;;;3.40;3.20;;;24.90;99.90;;;;;;6150813;28;89263;-68
2022/08/04 09:37:24;;;;;;;3.53;3.22;;;24.80;99.90;;;;;;6148740;28;89182;-68
2022/08/04 09:40:32;;;;;;;4.13;3.72;;;24.90;99.90;;;;;;6138449;28;90037;-69
2022/08/04 09:43:46;;;;;;;3.60;3.30;;;24.80;99.90;;;;;;6133528;28;89124;-69
2022/08/04 09:46:55;;;;;;;3.95;3.40;;;24.80;99.90;;;;;;6142774;28;88260;-69
2022/08/04 09:50:08;;;;;;;3.65;3.35;;;24.90;99.90;;;;;;6132858;28;88042;-69
2022/08/04 09:53:20;;;;;;;3.78;3.42;;;24.90;99.90;;;;;;6144801;28;89135;-69
2022/08/04 09:56:30;;;;;;;4.13;3.72;;;24.90;99.90;;;;;;6142835;28;88963;-69
2022/08/04 09:59:42;;;;;;;3.33;3.08;;;24.90;99.90;;;;;;6153173;28;89077;-68
2022/08/04 10:02:52;;;;;;;3.55;3.10;;;24.90;99.90;;;;;;6150606;28;88336;-69
2022/08/04 10:06:06;;;;;;;3.65;3.35;;;24.90;99.90;;;;;;6144595;28;87938;-69
2022/08/04 10:09:24;;;;;;;3.25;2.95;;;24.90;99.90;;;;;;6132922;28;89320;-69
2022/08/04 10:12:35;;;;;;;3.00;2.80;;;24.90;99.90;;;;;;6144255;28;88908;-69
2022/08/04 10:15:47;;;;;;;5.07;3.70;;;24.90;99.90;;;;;;6144801;28;89788;-68
2022/08/04 10:19:02;;;;;;;4.28;3.75;;;24.80;99.90;;;;;;6151331;28;89383;-68
2022/08/04 10:22:13;;;;;;;3.90;3.50;;;24.90;99.90;;;;;;6133284;28;87971;-69
2022/08/04 10:25:31;;;;;;;3.97;3.53;;;24.80;99.90;;;;;;6132394;28;89236;-69
2022/08/04 10:28:38;;;;;;;3.63;3.33;;;24.90;99.90;;;;;;6147162;28;88026;-68
2022/08/04 10:31:45;;;;;;;3.40;3.10;;;24.80;99.90;;;;;;6153326;28;89173;-69
2022/08/04 10:35:02;;;;;;;3.40;3.13;;;24.90;99.90;;;;;;6142611;28;88632;-68
2022/08/04 10:38:12;;;;;;;3.63;3.28;;;24.90;99.90;;;;;;6132485;28;89247;-68
2022/08/04 10:41:25;;;;;;;3.50;3.20;;;24.90;99.90;;;;;;6154138;28;89358;-69
2022/08/04 10:44:40;;;;;;;3.47;3.13;;;24.90;99.90;;;;;;6131742;28;90026;-69
2022/08/04 10:47:50;;;;;;;3.85;3.45;;;24.90;99.90;;;;;;6131473;28;89444;-69
2022/08/04 10:51:02;;;;;;;3.50;3.22;;;24.90;99.90;;;;;;6144962;28;89059;-69
2022/08/04 10:54:08;;;;;;;3.33;3.10;;;24.90;99.90;;;;;;6134437;28;89257;-69
2022/08/04 10:57:15;;;;;;;2.90;2.70;;;25.00;99.90;;;;;;6137587;28;88773;-69
2022/08/04 11:00:23;;;;;;;3.13;2.90;;;24.90;99.90;;;;;;6157082;28;89046;-69
2022/08/04 11:03:33;;;;;;;3.20;3.00;;;24.90;99.90;;;;;;6144667;28;89164;-68
2022/08/04 11:06:37;;;;;;;3.10;2.80;;;24.90;99.90;;;;;;6150480;28;88585;-69
2022/08/04 11:09:42;;;;;;;3.35;3.05;;;24.90;99.90;;;;;;6135048;28;88955;-68
2022/08/04 11:12:47;;;;;;;3.42;3.00;;;24.90;99.90;;;;;;6148563;28;89077;-68
2022/08/04 11:15:54;;;;;;;2.95;2.75;;;24.90;99.90;;;;;;6136192;28;90764;-69
2022/08/04 11:19:08;;;;;;;3.10;2.90;;;24.90;99.90;;;;;;6149295;28;89055;-69
2022/08/04 11:22:16;;;;;;;3.88;3.45;;;24.90;99.90;;;;;;6138283;28;89009;-69
2022/08/04 11:25:21;;;;;;;3.50;3.30;;;24.90;99.90;;;;;;6134676;28;89044;-69
2022/08/04 11:28:33;;;;;;;3.28;3.08;;;24.90;99.90;;;;;;6147971;28;89290;-68
2022/08/04 11:31:40;;;;;;;3.15;2.95;;;24.90;99.90;;;;;;6148473;28;89243;-69
2022/08/04 11:34:47;;;;;;;3.13;2.92;;;25.00;99.90;;;;;;6145511;28;89083;-68
2022/08/04 11:38:01;;;;;;;3.00;2.80;;;24.90;99.90;;;;;;6137207;28;88374;-69
2022/08/04 11:41:10;;;;;;;2.97;2.78;;;24.90;99.90;;;;;;6147646;28;89028;-69
2022/08/04 11:44:19;;;;;;;3.20;3.00;;;24.90;99.90;;;;;;6134812;28;89073;-68
2022/08/04 11:47:29;;;;;;;3.08;2.88;;;25.00;99.90;;;;;;6146154;28;90027;-69
2022/08/04 11:50:37;;;;;;;3.45;3.15;;;25.00;99.90;;;;;;6135288;28;89527;-69
2022/08/04 11:53:43;;;;;;;3.10;2.90;;;25.00;99.90;;;;;;6152621;28;89165;-70
2022/08/04 11:56:46;;;;;;;3.13;2.92;;;25.00;99.90;;;;;;6140461;28;88160;-69
2022/08/04 11:59:49;;;;;;;3.30;3.10;;;25.00;99.90;;;;;;6142705;28;89194;-69
2022/08/04 12:03:10;;;;;;;3.53;3.22;;;25.00;99.90;;;;;;6155827;28;89418;-69
2022/08/04 12:06:18;;;;;;;3.25;3.05;;;25.00;99.90;;;;;;6143906;28;89100;-69
2022/08/04 12:09:29;;;;;;;3.28;3.08;;;25.00;99.90;;;;;;6135273;28;88488;-69
2022/08/04 12:12:43;;;;;;;3.22;2.92;;;25.00;99.90;;;;;;6145015;28;88932;-69
2022/08/04 12:15:56;;;;;;;3.40;3.10;;;25.00;99.90;;;;;;6144792;28;88267;-69
2022/08/04 12:19:02;;;;;;;3.38;3.10;;;25.00;99.90;;;;;;6147000;28;90055;-69
2022/08/04 12:22:10;;;;;;;3.30;3.10;;;25.00;99.90;;;;;;6146207;28;89388;-69
2022/08/04 12:25:18;;;;;;;2.97;2.78;;;25.00;99.90;;;;;;6147386;28;89576;-69
2022/08/04 12:28:26;;;;;;;2.90;2.70;;;25.00;99.90;;;;;;6158658;28;89134;-69
2022/08/04 12:31:33;;;;;;;2.95;2.75;;;25.00;99.90;;;;;;6157779;28;89231;-69
2022/08/04 12:34:41;;;;;;;3.22;2.97;;;25.00;99.90;;;;;;6134416;28;89100;-69
2022/08/04 12:37:51;;;;;;;2.80;2.60;;;25.00;99.90;;;;;;6155376;28;89065;-68
2022/08/04 12:40:58;;;;;;;2.90;2.70;;;25.10;99.90;;;;;;6157048;28;88418;-69
2022/08/04 12:44:06;;;;;;;3.10;2.80;;;25.00;99.90;;;;;;6134056;28;89043;-69
2022/08/04 12:47:10;;;;;;;3.30;3.10;;;25.10;99.90;;;;;;6133540;28;89038;-69
2022/08/04 12:50:17;;;;;;;3.05;2.85;;;25.10;99.90;;;;;;6132454;28;88848;-69
2022/08/04 12:53:20;;;;;;;2.97;2.78;;;25.10;99.90;;;;;;6147125;28;89131;-69
2022/08/04 12:56:28;;;;;;;2.95;2.75;;;25.10;99.90;;;;;;6146451;28;89039;-69
2022/08/04 12:59:30;;;;;;;3.05;2.75;;;25.10;99.90;;;;;;6146254;28;89280;-69
2022/08/04 13:02:40;;;;;;;3.05;2.85;;;25.10;99.90;;;;;;6136409;28;88862;-69
2022/08/04 13:05:43;;;;;;;3.42;3.13;;;25.00;99.90;;;;;;6154702;28;90584;-69
2022/08/04 13:08:47;;;;;;;2.95;2.75;;;25.00;99.90;;;;;;6133698;28;89032;-69
2022/08/04 13:11:55;;;;;;;3.00;2.80;;;25.00;99.90;;;;;;6145463;28;88379;-68
2022/08/04 13:15:09;;;;;;;2.80;2.60;;;25.00;99.90;;;;;;6133494;28;88734;-69
2022/08/04 13:18:12;;;;;;;3.00;2.80;;;25.10;99.90;;;;;;6143816;28;88070;-70
2022/08/04 13:21:16;;;;;;;2.97;2.75;;;25.10;99.90;;;;;;6143646;28;90224;-70
2022/08/04 13:24:20;;;;;;;2.90;2.70;;;25.00;99.90;;;;;;6150033;28;89032;-69
2022/08/04 13:27:24;;;;;;;2.70;2.50;;;25.10;99.90;;;;;;6147705;28;89263;-69
2022/08/04 13:30:28;;;;;;;3.30;3.00;;;25.10;99.90;;;;;;6139428;28;89124;-69
2022/08/04 13:33:32;;;;;;;3.00;2.70;;;25.10;99.90;;;;;;6153357;28;87974;-69
2022/08/04 13:36:35;;;;;;;3.30;3.00;;;25.10;99.90;;;;;;6134924;28;89070;-68
2022/08/04 13:39:44;;;;;;;2.60;2.40;;;25.10;99.90;;;;;;6134378;28;87958;-69
2022/08/04 13:42:51;;;;;;;2.65;2.45;;;25.10;99.90;;;;;;6134051;28;90713;-68
2022/08/04 13:46:00;;;;;;;2.83;2.63;;;25.10;99.90;;;;;;6135530;28;89079;-69
2022/08/04 13:49:07;;;;;;;2.70;2.50;;;25.10;99.90;;;;;;6151502;28;88874;-69
2022/08/04 13:52:09;;;;;;;3.15;2.90;;;25.10;99.90;;;;;;6137028;28;90066;-69
2022/08/04 13:55:23;;;;;;;3.00;2.80;;;25.10;99.90;;;;;;6136903;28;88698;-70
2022/08/04 13:58:31;;;;;;;2.80;2.60;;;25.10;99.90;;;;;;6153693;28;89057;-69
2022/08/04 14:01:35;;;;;;;3.50;3.20;;;25.10;99.90;;;;;;6143703;28;89222;-70
2022/08/04 14:04:42;;;;;;;2.85;2.65;;;25.10;99.90;;;;;;6141786;28;88184;-69
2022/08/04 14:07:47;;;;;;;2.78;2.58;;;25.10;99.90;;;;;;6145010;28;89030;-69
2022/08/04 14:10:54;;;;;;;2.80;2.60;;;25.10;99.90;;;;;;6135819;28;89101;-69
2022/08/04 14:13:58;;;;;;;3.00;2.80;;;25.10;99.90;;;;;;6155539;28;88373;-69
2022/08/04 14:17:04;;;;;;;2.85;2.65;;;25.10;99.90;;;;;;6143280;28;89187;-69
2022/08/04 14:20:07;;;;;;;2.92;2.72;;;25.10;99.90;;;;;;6131356;28;88206;-69
2022/08/04 14:23:09;;;;;;;2.70;2.50;;;25.10;99.90;;;;;;6145340;28;90389;-69
2022/08/04 14:26:24;;;;;;;2.70;2.50;;;25.10;99.90;;;;;;6132764;28;87891;-70
2022/08/04 14:29:37;;;;;;;2.67;2.47;;;25.10;99.90;;;;;;6155850;28;88221;-69
2022/08/04 14:32:54;;;;;;;2.75;2.55;;;25.10;99.90;;;;;;6158338;28;89367;-70
2022/08/04 14:35:58;;;;;;;2.70;2.50;;;25.10;99.90;;;;;;6149952;28;89048;-69
2022/08/04 14:39:00;;;;;;;2.85;2.65;;;25.20;99.90;;;;;;6146966;28;89038;-70
2022/08/04 14:42:02;;;;;;;3.00;2.80;;;25.10;99.90;;;;;;6153776;28;89524;-70
2022/08/04 14:45:06;;;;;;;2.78;2.58;;;25.10;99.90;;;;;;6157691;28;88413;-70
2022/08/04 14:48:10;;;;;;;2.97;2.78;;;25.10;99.90;;;;;;6144842;28;89109;-70
2022/08/04 14:51:15;;;;;;;2.97;2.78;;;25.10;99.90;;;;;;6149649;28;89387;-70
2022/08/04 14:54:25;;;;;;;2.70;2.50;;;25.20;99.90;;;;;;6158970;28;90037;-70
2022/08/04 14:57:27;;;;;;;2.92;2.63;;;25.10;99.90;;;;;;6147967;28;89114;-70
2022/08/04 15:00:32;;;;;;;2.90;2.70;;;25.10;99.90;;;;;;6149508;28;89046;-70
2022/08/04 15:03:35;;;;;;;2.80;2.60;;;25.10;99.90;;;;;;6153192;28;89179;-69
2022/08/04 15:06:37;;;;;;;2.78;2.58;;;25.20;99.90;;;;;;6138934;28;89089;-69
2022/08/04 15:09:41;;;;;;;2.67;2.47;;;25.20;99.90;;;;;;6146991;28;89144;-69
2022/08/04 15:12:44;;;;;;;3.10;2.70;;;25.10;99.90;;;;;;6136934;28;89233;-70
2022/08/04 15:15:47;;;;;;;3.08;2.88;;;25.20;99.90;;;;;;6134996;28;88255;-69
2022/08/04 15:18:50;;;;;;;3.42;3.13;;;25.20;99.90;;;;;;6148801;28;89459;-69
2022/08/04 15:21:52;;;;;;;3.08;2.88;;;25.10;99.90;;;;;;6149240;28;90475;-69
2022/08/04 15:24:55;;;;;;;2.97;2.78;;;25.10;99.90;;;;;;6150161;28;90498;-68
2022/08/04 15:27:57;;;;;;;2.60;2.40;;;25.20;99.90;;;;;;6135256;28;89306;-70
2022/08/04 15:31:03;;;;;;;2.80;2.60;;;25.20;99.90;;;;;;6144172;28;89035;-70
2022/08/04 15:34:06;;;;;;;2.80;2.60;;;25.20;99.90;;;;;;6157937;28;89032;-69
2022/08/04 15:37:09;;;;;;;2.75;2.55;;;25.20;99.90;;;;;;6140210;28;89054;-69
2022/08/04 15:40:14;;;;;;;2.63;2.42;;;25.20;99.90;;;;;;6150583;28;88601;-69
2022/08/04 15:43:37;;;;;;;2.97;2.78;;;25.20;99.90;;;;;;6156627;28;89874;-70
2022/08/04 15:47:11;;;;;;;2.70;2.50;;;25.20;99.90;;;;;;6146766;28;88366;-69
2022/08/04 15:50:13;;;;;;;2.80;2.60;;;25.20;99.90;;;;;;6139654;28;89148;-70
2022/08/04 15:53:16;;;;;;;2.85;2.65;;;25.20;99.90;;;;;;6136659;28;89000;-69
2022/08/04 15:56:45;;;;;;;3.08;2.88;;;25.20;99.90;;;;;;6146157;28;88887;-70
2022/08/04 16:00:02;;;;;;;2.80;2.60;;;25.20;99.90;;;;;;6141160;28;89161;-70
2022/08/04 16:03:41;;;;;;;2.85;2.65;;;25.20;99.90;;;;;;6138488;28;89685;-69
2022/08/04 16:06:44;;;;;;;2.97;2.78;;;25.20;99.90;;;;;;6145217;28;90277;-70
2022/08/04 16:09:46;;;;;;;2.85;2.65;;;25.20;99.90;;;;;;6155916;28;89222;-69
2022/08/04 16:12:55;;;;;;;2.80;2.60;;;25.20;99.90;;;;;;6151380;28;90012;-70
2022/08/04 16:15:58;;;;;;;2.80;2.60;;;25.20;99.90;;;;;;6154752;28;89320;-69
2022/08/04 16:19:06;;;;;;;2.90;2.70;;;25.20;99.90;;;;;;6139441;28;87985;-70
2022/08/04 16:22:13;;;;;;;3.08;2.88;;;25.20;99.90;;;;;;6147039;28;89067;-69
2022/08/04 16:25:15;;;;;;;2.80;2.60;;;25.20;99.90;;;;;;6135682;28;87990;-69
2022/08/04 16:28:40;;;;;;;2.90;2.70;;;25.20;99.90;;;;;;6134761;28;90351;-69
2022/08/04 16:32:06;;;;;;;2.80;2.60;;;25.20;99.90;;;;;;6146980;28;89496;-69